createdAt,value
2019-03-13T00:01:32.383Z,1.00
2019-03-13T00:03:58.870Z,1.60
2019-03-13T00:06:25.403Z,1.10
2019-03-13T00:08:51.837Z,1.23
2019-03-13T00:11:18.681Z,1.30
2019-03-13T00:13:45.319Z,1.33
2019-03-13T00:16:11.854Z,1.10
2019-03-13T00:18:38.287Z,1.37
2019-03-13T00:21:04.818Z,1.40
2019-03-13T00:23:31.361Z,1.70
2019-03-13T00:25:57.906Z,1.57
2019-03-13T00:28:24.434Z,1.40
2019-03-13T00:30:50.968Z,1.43
2019-03-13T00:33:17.403Z,1.80
2019-03-13T00:35:43.948Z,1.87
2019-03-13T00:38:10.374Z,1.90
2019-03-13T00:40:36.804Z,2.37
2019-03-13T00:43:03.546Z,2.00
2019-03-13T00:45:30.184Z,2.20
2019-03-13T00:47:56.617Z,2.00
2019-03-13T00:50:25.304Z,2.27
2019-03-13T00:52:51.737Z,2.20
2019-03-13T00:55:18.376Z,2.70
2019-03-13T00:57:44.810Z,2.43
2019-03-13T01:00:13.369Z,1.93
2019-03-13T01:02:41.749Z,1.60
2019-03-13T01:05:16.947Z,1.50
2019-03-13T01:07:44.551Z,1.60
2019-03-13T01:10:11.351Z,1.60
2019-03-13T01:12:38.903Z,1.50
2019-03-13T01:15:07.529Z,1.20
2019-03-13T01:17:33.991Z,1.20
2019-03-13T01:20:00.426Z,0.73
2019-03-13T01:22:27.165Z,0.77
2019-03-13T01:24:53.702Z,0.60
2019-03-13T01:27:20.141Z,0.27
2019-03-13T01:29:46.773Z,0.10
2019-03-13T01:32:21.195Z,0.10
2019-03-13T01:34:55.411Z,0.10
2019-03-13T01:37:21.845Z,0.10
2019-03-13T01:39:48.379Z,0.20
2019-03-13T01:42:15.019Z,0.20
2019-03-13T01:44:41.964Z,0.20
2019-03-13T01:47:08.398Z,0.20
2019-03-13T01:49:34.830Z,0.57
2019-03-13T01:52:01.265Z,0.50
2019-03-13T01:54:27.701Z,0.53
2019-03-13T01:56:54.131Z,0.50
2019-03-13T01:59:20.668Z,0.40
2019-03-13T02:01:47.103Z,0.40
2019-03-13T02:04:13.636Z,0.23
2019-03-13T02:06:40.172Z,0.30
2019-03-13T02:09:08.602Z,0.17
2019-03-13T02:11:35.091Z,0.40
2019-03-13T02:14:01.684Z,0.10
2019-03-13T02:16:28.363Z,0.30
2019-03-13T02:18:54.798Z,0.20
2019-03-13T02:21:21.232Z,0.27
2019-03-13T02:23:47.768Z,0.10
2019-03-13T02:26:14.408Z,0.20
2019-03-13T02:28:40.947Z,0.20
2019-03-13T02:31:07.759Z,0.20
2019-03-13T02:33:37.602Z,0.30
2019-03-13T02:36:04.137Z,0.30
2019-03-13T02:38:30.575Z,0.30
2019-03-13T02:40:57.146Z,0.20
2019-03-13T02:43:23.741Z,0.27
2019-03-13T02:45:50.380Z,0.20
2019-03-13T02:48:16.825Z,0.20
2019-03-13T02:50:43.248Z,0.30
2019-03-13T02:53:09.987Z,0.30
2019-03-13T02:55:36.523Z,0.40
2019-03-13T02:58:02.962Z,0.40
2019-03-13T03:00:43.113Z,0.40
2019-03-13T03:03:26.546Z,0.37
2019-03-13T03:05:53.083Z,0.50
2019-03-13T03:08:19.513Z,0.40
2019-03-13T03:10:45.980Z,0.53
2019-03-13T03:13:12.495Z,0.30
2019-03-13T03:15:39.123Z,0.60
2019-03-13T03:18:05.759Z,0.40
2019-03-13T03:20:32.193Z,0.50
2019-03-13T03:22:58.635Z,0.40
2019-03-13T03:25:25.166Z,0.50
2019-03-13T03:27:51.596Z,0.43
2019-03-13T03:30:21.248Z,0.40
2019-03-13T03:32:47.846Z,0.60
2019-03-13T03:35:14.380Z,0.33
2019-03-13T03:37:40.950Z,0.30
2019-03-13T03:40:10.834Z,0.30
2019-03-13T03:42:37.265Z,0.70
2019-03-13T03:45:07.179Z,0.57
2019-03-13T03:47:33.715Z,0.27
2019-03-13T03:50:00.157Z,0.30
2019-03-13T03:52:26.592Z,0.23
2019-03-13T03:54:53.118Z,0.40
2019-03-13T03:57:19.558Z,0.27
2019-03-13T03:59:45.986Z,0.33
2019-03-13T04:02:12.417Z,0.30
2019-03-13T04:04:39.058Z,0.20
2019-03-13T04:07:05.694Z,0.30
2019-03-13T04:09:32.129Z,0.30
2019-03-13T04:11:58.563Z,0.30
2019-03-13T04:14:24.995Z,0.40
2019-03-13T04:16:51.531Z,0.30
2019-03-13T04:19:17.964Z,0.37
2019-03-13T04:21:44.398Z,0.40
2019-03-13T04:24:12.881Z,0.33
2019-03-13T04:26:39.417Z,0.40
2019-03-13T04:29:05.852Z,0.40
2019-03-13T04:31:32.282Z,0.30
2019-03-13T04:33:58.720Z,0.30
2019-03-13T04:36:25.255Z,0.40
2019-03-13T04:38:51.721Z,0.40
2019-03-13T04:41:18.222Z,0.30
2019-03-13T04:43:44.656Z,0.40
2019-03-13T04:46:11.193Z,0.60
2019-03-13T04:48:37.623Z,0.40
2019-03-13T04:51:04.056Z,0.30
2019-03-13T04:53:30.589Z,0.30
2019-03-13T04:55:57.231Z,0.30
2019-03-13T04:58:23.665Z,0.30
2019-03-13T05:00:50.097Z,0.40
2019-03-13T05:03:16.514Z,0.40
2019-03-13T05:05:45.325Z,0.30
2019-03-13T05:08:18.210Z,0.30
2019-03-13T05:10:44.638Z,0.47
2019-03-13T05:13:11.209Z,0.30
2019-03-13T05:15:37.917Z,0.50
2019-03-13T05:18:04.454Z,0.50
2019-03-13T05:20:30.887Z,0.80
2019-03-13T05:22:57.321Z,0.53
2019-03-13T05:25:23.854Z,0.30
2019-03-13T05:27:50.287Z,0.40
2019-03-13T05:30:16.722Z,0.40
2019-03-13T05:32:43.569Z,0.40
2019-03-13T05:35:10.101Z,0.40
2019-03-13T05:37:36.534Z,0.33
2019-03-13T05:40:08.608Z,0.40
2019-03-13T05:42:35.134Z,0.57
2019-03-13T05:45:01.673Z,0.63
2019-03-13T05:47:28.104Z,0.70
2019-03-13T05:49:54.541Z,0.90
2019-03-13T05:52:21.026Z,0.50
2019-03-13T05:54:47.713Z,0.67
2019-03-13T05:57:14.146Z,0.67
2019-03-13T05:59:40.609Z,0.80
2019-03-13T06:02:07.014Z,0.77
2019-03-13T06:04:33.548Z,1.10
2019-03-13T06:06:59.982Z,1.30
2019-03-13T06:09:26.523Z,1.20
2019-03-13T06:11:53.057Z,1.47
2019-03-13T06:14:19.490Z,1.73
2019-03-13T06:16:46.027Z,1.30
2019-03-13T06:19:12.560Z,1.63
2019-03-13T06:21:39.098Z,1.20
2019-03-13T06:24:05.734Z,1.53
2019-03-13T06:26:32.275Z,1.37
2019-03-13T06:28:58.708Z,0.80
2019-03-13T06:31:25.241Z,0.80
2019-03-13T06:33:51.681Z,1.83
2019-03-13T06:36:18.212Z,1.93
2019-03-13T06:38:44.644Z,1.90
2019-03-13T06:41:11.081Z,1.07
2019-03-13T06:43:37.615Z,0.90
2019-03-13T06:46:04.151Z,1.20
2019-03-13T06:48:30.582Z,1.40
2019-03-13T06:50:57.016Z,2.23
2019-03-13T06:53:23.447Z,1.10
2019-03-13T06:55:49.985Z,2.10
2019-03-13T06:58:18.260Z,1.00
2019-03-13T07:01:01.694Z,0.80
2019-03-13T07:03:41.848Z,0.67
2019-03-13T07:06:26.933Z,0.93
2019-03-13T07:09:12.156Z,1.10
2019-03-13T07:11:43.442Z,0.90
2019-03-13T07:14:20.626Z,1.20
2019-03-13T07:16:51.975Z,1.17
2019-03-13T07:19:20.663Z,0.80
2019-03-13T07:21:54.854Z,1.00
2019-03-13T07:24:32.178Z,0.90
2019-03-13T07:27:00.450Z,0.80
2019-03-13T07:29:28.723Z,0.67
2019-03-13T07:31:57.000Z,0.80
2019-03-13T07:34:43.613Z,0.50
2019-03-13T07:37:12.191Z,0.70
2019-03-13T07:39:52.540Z,0.63
2019-03-13T07:42:37.706Z,1.10
2019-03-13T07:45:11.903Z,0.77
2019-03-13T07:47:40.219Z,1.00
2019-03-13T07:50:13.019Z,0.70
2019-03-13T07:52:41.476Z,0.80
2019-03-13T07:55:17.030Z,0.90
2019-03-13T07:57:54.525Z,1.03
2019-03-13T08:00:39.587Z,1.20
2019-03-13T08:03:14.248Z,0.80
2019-03-13T08:05:42.592Z,0.70
2019-03-13T08:08:17.204Z,0.80
2019-03-13T08:10:48.884Z,0.60
2019-03-13T08:13:21.509Z,0.80
2019-03-13T08:16:05.087Z,0.70
2019-03-13T08:18:35.924Z,0.90
2019-03-13T08:21:10.111Z,4.00
2019-03-13T08:23:50.505Z,1.10
2019-03-13T08:26:18.982Z,0.60
2019-03-13T08:28:53.481Z,0.53
2019-03-13T08:31:21.808Z,1.60
2019-03-13T08:33:52.276Z,2.80
2019-03-13T08:36:40.338Z,1.60
2019-03-13T08:39:10.402Z,0.83
2019-03-13T08:41:38.729Z,0.40
2019-03-13T08:44:12.881Z,0.60
2019-03-13T08:46:59.051Z,0.53
2019-03-13T08:49:27.337Z,0.80
2019-03-13T08:51:55.700Z,0.63
2019-03-13T08:54:33.026Z,0.50
2019-03-13T08:57:01.379Z,0.67
2019-03-13T08:59:29.765Z,0.80
2019-03-13T09:02:01.776Z,0.87
2019-03-13T09:04:41.876Z,0.80
2019-03-13T09:07:23.356Z,1.00
2019-03-13T09:09:52.912Z,0.77
2019-03-13T09:12:23.827Z,0.70
2019-03-13T09:15:08.753Z,1.13
2019-03-13T09:17:43.070Z,0.80
2019-03-13T09:20:14.267Z,1.00
2019-03-13T09:22:59.214Z,1.80
2019-03-13T09:25:36.513Z,0.80
2019-03-13T09:28:13.587Z,0.80
2019-03-13T09:31:01.958Z,0.70
2019-03-13T09:33:40.047Z,1.17
2019-03-13T09:36:10.923Z,1.00
2019-03-13T09:38:51.134Z,0.83
2019-03-13T09:41:25.455Z,1.10
2019-03-13T09:44:05.361Z,1.20
2019-03-13T09:46:33.680Z,1.20
2019-03-13T09:49:14.966Z,1.00
2019-03-13T09:51:58.399Z,0.63
2019-03-13T09:54:31.120Z,0.53
2019-03-13T09:57:02.313Z,0.80
2019-03-13T09:59:42.686Z,1.07
2019-03-13T10:02:04.057Z,1.10
2019-03-13T10:04:41.490Z,1.47
2019-03-13T10:07:09.765Z,0.80
2019-03-13T10:09:47.257Z,1.00
2019-03-13T10:12:15.535Z,1.13
2019-03-13T10:14:53.133Z,1.47
2019-03-13T10:17:21.431Z,1.10
2019-03-13T10:19:52.756Z,1.27
2019-03-13T10:22:37.826Z,1.10
2019-03-13T10:25:14.662Z,2.20
2019-03-13T10:27:58.341Z,2.73
2019-03-13T10:30:44.948Z,1.23
2019-03-13T10:33:31.554Z,0.93
2019-03-13T10:36:01.674Z,1.13
2019-03-13T10:38:35.743Z,1.33
2019-03-13T10:41:10.060Z,1.10
2019-03-13T10:43:41.367Z,1.07
2019-03-13T10:46:11.576Z,1.47
2019-03-13T10:48:46.006Z,0.90
2019-03-13T10:51:20.338Z,1.00
2019-03-13T10:53:48.594Z,1.03
2019-03-13T10:56:33.668Z,0.97
2019-03-13T10:59:20.168Z,1.30
2019-03-13T11:01:53.233Z,0.90
2019-03-13T11:04:24.622Z,1.20
2019-03-13T11:07:02.235Z,1.23
2019-03-13T11:09:45.887Z,1.30
2019-03-13T11:12:18.118Z,1.13
2019-03-13T11:14:49.530Z,1.30
2019-03-13T11:17:17.839Z,1.33
2019-03-13T11:19:46.115Z,1.07
2019-03-13T11:22:17.561Z,1.13
2019-03-13T11:24:48.801Z,1.40
2019-03-13T11:27:22.797Z,1.33
2019-03-13T11:30:00.452Z,1.30
2019-03-13T11:32:46.105Z,1.13
2019-03-13T11:35:17.258Z,0.90
2019-03-13T11:37:45.525Z,1.50
2019-03-13T11:40:32.850Z,1.17
2019-03-13T11:43:13.311Z,0.97
2019-03-13T11:45:56.950Z,1.23
2019-03-13T11:48:30.920Z,1.30
2019-03-13T11:51:04.929Z,0.80
2019-03-13T11:53:31.652Z,1.40
2019-03-13T11:56:00.093Z,1.40
2019-03-13T11:58:31.235Z,1.50
2019-03-13T12:01:17.281Z,1.00
2019-03-13T12:03:47.551Z,1.20
2019-03-13T12:06:34.775Z,1.70
2019-03-13T12:09:19.636Z,1.73
2019-03-13T12:11:47.925Z,1.13
2019-03-13T12:14:32.779Z,1.20
2019-03-13T12:17:09.811Z,1.30
2019-03-13T12:19:43.834Z,1.60
2019-03-13T12:22:30.070Z,1.03
2019-03-13T12:25:04.581Z,1.03
2019-03-13T12:27:35.879Z,1.73
2019-03-13T12:30:10.285Z,0.80
2019-03-13T12:32:47.650Z,1.20
2019-03-13T12:35:15.927Z,1.20
2019-03-13T12:37:44.207Z,1.43
2019-03-13T12:40:15.930Z,1.40
2019-03-13T12:42:44.246Z,1.20
2019-03-13T12:45:15.223Z,1.00
2019-03-13T12:47:49.278Z,1.30
2019-03-13T12:50:17.571Z,1.10
2019-03-13T12:52:54.964Z,1.43
2019-03-13T12:55:29.074Z,1.27
2019-03-13T12:58:00.118Z,1.00
2019-03-13T13:00:28.395Z,1.40
2019-03-13T13:03:14.898Z,1.20
2019-03-13T13:05:43.176Z,1.13
2019-03-13T13:08:14.123Z,1.20
2019-03-13T13:10:59.185Z,1.37
2019-03-13T13:13:30.370Z,1.50
2019-03-13T13:16:15.300Z,0.93
2019-03-13T13:18:50.644Z,1.50
2019-03-13T13:21:17.078Z,1.57
2019-03-13T13:23:43.616Z,0.97
2019-03-13T13:26:11.397Z,1.30
2019-03-13T13:28:39.165Z,1.20
2019-03-13T13:31:06.256Z,1.50
2019-03-13T13:33:32.831Z,0.93
2019-03-13T13:35:59.367Z,1.00
2019-03-13T13:38:25.800Z,1.10
2019-03-13T13:40:52.235Z,1.03
2019-03-13T13:43:18.703Z,1.10
2019-03-13T13:45:46.742Z,1.53
2019-03-13T13:48:13.175Z,1.23
2019-03-13T13:50:39.611Z,1.50
2019-03-13T13:53:06.126Z,1.70
2019-03-13T13:55:32.898Z,1.30
2019-03-13T13:57:59.424Z,1.30
2019-03-13T14:00:25.857Z,1.53
2019-03-13T14:02:52.292Z,1.00
2019-03-13T14:05:18.829Z,0.90
2019-03-13T14:07:45.264Z,1.30
2019-03-13T14:10:12.308Z,1.40
2019-03-13T14:12:38.743Z,1.00
2019-03-13T14:15:07.902Z,1.20
2019-03-13T14:17:34.376Z,1.30
2019-03-13T14:20:00.809Z,0.90
2019-03-13T14:22:27.244Z,1.07
2019-03-13T14:24:53.881Z,1.50
2019-03-13T14:27:20.421Z,1.20
2019-03-13T14:29:47.391Z,1.30
2019-03-13T14:32:14.051Z,1.10
2019-03-13T14:34:40.643Z,1.40
2019-03-13T14:37:07.075Z,1.47
2019-03-13T14:39:33.511Z,1.10
2019-03-13T14:41:59.945Z,1.70
2019-03-13T14:44:26.378Z,1.30
2019-03-13T14:46:52.810Z,1.67
2019-03-13T14:49:19.249Z,1.53
2019-03-13T14:51:45.692Z,1.30
2019-03-13T14:54:12.114Z,1.43
2019-03-13T14:56:38.751Z,1.47
2019-03-13T14:59:05.291Z,1.50
2019-03-13T15:01:33.571Z,1.67
2019-03-13T15:04:00.000Z,1.50
2019-03-13T15:06:26.539Z,1.37
2019-03-13T15:08:54.387Z,1.97
2019-03-13T15:11:20.998Z,1.43
2019-03-13T15:13:47.476Z,1.70
2019-03-13T15:16:14.012Z,1.67
2019-03-13T15:18:42.088Z,1.93
2019-03-13T15:21:08.545Z,2.13
2019-03-13T15:23:34.943Z,1.80
2019-03-13T15:26:02.002Z,1.13
2019-03-13T15:28:28.433Z,1.50
2019-03-13T15:30:55.026Z,1.63
2019-03-13T15:33:21.516Z,2.17
2019-03-13T15:35:48.042Z,1.70
2019-03-13T15:38:14.476Z,1.73
2019-03-13T15:40:40.913Z,1.70
2019-03-13T15:43:07.549Z,1.17
2019-03-13T15:45:34.700Z,1.10
2019-03-13T15:48:01.258Z,1.03
2019-03-13T15:50:28.185Z,1.20
2019-03-13T15:52:54.821Z,1.20
2019-03-13T15:55:21.665Z,0.93
2019-03-13T15:57:51.263Z,0.87
2019-03-13T16:00:26.248Z,1.00
2019-03-13T16:02:55.515Z,1.10
2019-03-13T16:05:21.845Z,0.90
2019-03-13T16:07:48.786Z,1.10
2019-03-13T16:10:16.244Z,0.67
2019-03-13T16:12:42.987Z,1.43
2019-03-13T16:15:21.631Z,1.10
2019-03-13T16:17:48.145Z,1.00
2019-03-13T16:20:15.704Z,1.30
2019-03-13T16:22:44.025Z,1.30
2019-03-13T16:25:11.337Z,0.90
2019-03-13T16:27:38.383Z,0.73
2019-03-13T16:30:16.865Z,0.63
2019-03-13T16:32:44.317Z,1.13
2019-03-13T16:35:11.198Z,0.63
2019-03-13T16:37:37.634Z,0.80
2019-03-13T16:40:07.457Z,0.87
2019-03-13T16:42:33.983Z,0.83
2019-03-13T16:45:00.629Z,2.40
2019-03-13T16:47:27.055Z,1.60
2019-03-13T16:49:54.880Z,1.80
2019-03-13T16:52:21.466Z,1.40
2019-03-13T16:54:47.997Z,1.67
2019-03-13T16:57:14.639Z,1.20
2019-03-13T16:59:41.174Z,0.97
2019-03-13T17:02:08.669Z,1.33
2019-03-13T17:04:35.372Z,1.00
2019-03-13T17:07:02.008Z,1.80
2019-03-13T17:09:28.547Z,1.50
2019-03-13T17:11:56.565Z,1.63
2019-03-13T17:14:23.155Z,2.93
2019-03-13T17:16:49.592Z,2.50
2019-03-13T17:19:16.230Z,2.53
2019-03-13T17:21:42.765Z,2.00
2019-03-13T17:24:09.181Z,1.30
2019-03-13T17:26:36.760Z,1.27
2019-03-13T17:29:03.396Z,1.53
2019-03-13T17:31:31.684Z,1.70
2019-03-13T17:33:58.266Z,1.40
2019-03-13T17:36:24.849Z,1.77
2019-03-13T17:38:51.391Z,1.30
2019-03-13T17:41:18.027Z,1.40
2019-03-13T17:43:44.461Z,1.40
2019-03-13T17:46:12.787Z,1.53
2019-03-13T17:48:39.375Z,2.20
2019-03-13T17:51:06.243Z,2.03
2019-03-13T17:53:33.063Z,1.70
2019-03-13T17:55:59.699Z,1.53
2019-03-13T17:58:26.543Z,1.90
2019-03-13T18:00:54.663Z,2.70
2019-03-13T18:03:22.790Z,2.40
2019-03-13T18:05:49.529Z,3.60
2019-03-13T18:08:17.745Z,2.73
2019-03-13T18:10:45.857Z,2.37
2019-03-13T18:13:14.282Z,1.70
2019-03-13T18:15:42.289Z,2.00
2019-03-13T18:18:10.262Z,1.73
2019-03-13T18:20:38.579Z,2.00
2019-03-13T18:23:06.447Z,2.10
2019-03-13T18:25:36.044Z,2.17
2019-03-13T18:28:05.056Z,1.67
2019-03-13T18:30:34.862Z,1.60
2019-03-13T18:33:01.299Z,2.17
2019-03-13T18:35:27.831Z,2.30
2019-03-13T18:37:54.471Z,2.43
2019-03-13T18:40:24.488Z,2.60
2019-03-13T18:42:51.129Z,1.80
2019-03-13T18:45:28.521Z,1.80
2019-03-13T18:47:55.362Z,1.97
2019-03-13T18:50:22.212Z,2.30
2019-03-13T18:52:48.846Z,1.80
2019-03-13T18:55:18.612Z,2.27
2019-03-13T18:57:45.297Z,2.10
2019-03-13T19:00:18.281Z,2.10
2019-03-13T19:02:44.922Z,2.67
2019-03-13T19:05:12.993Z,2.20
2019-03-13T19:07:39.534Z,2.50
2019-03-13T19:10:15.078Z,2.17
2019-03-13T19:12:41.614Z,2.60
2019-03-13T19:15:19.441Z,2.20
2019-03-13T19:17:47.898Z,2.13
2019-03-13T19:20:22.989Z,2.67
2019-03-13T19:22:49.984Z,2.63
2019-03-13T19:25:16.722Z,2.30
2019-03-13T19:27:43.156Z,2.30
2019-03-13T19:30:15.912Z,2.70
2019-03-13T19:32:42.372Z,2.53
2019-03-13T19:35:09.121Z,2.00
2019-03-13T19:37:35.647Z,2.00
2019-03-13T19:40:02.294Z,2.77
2019-03-13T19:42:28.825Z,2.43
2019-03-13T19:44:55.363Z,2.97
2019-03-13T19:47:21.900Z,3.20
2019-03-13T19:49:48.333Z,2.80
2019-03-13T19:52:14.765Z,2.50
2019-03-13T19:54:41.300Z,2.80
2019-03-13T19:57:07.938Z,2.30
2019-03-13T19:59:36.873Z,2.90
2019-03-13T20:02:02.855Z,2.63
2019-03-13T20:04:30.548Z,3.07
2019-03-13T20:06:57.257Z,3.20
2019-03-13T20:09:23.691Z,2.47
2019-03-13T20:11:50.126Z,2.43
2019-03-13T20:14:16.660Z,2.17
2019-03-13T20:16:45.385Z,1.80
2019-03-13T20:19:11.580Z,1.90
2019-03-13T20:21:38.013Z,2.30
2019-03-13T20:24:04.549Z,2.10
2019-03-13T20:26:31.089Z,2.07
2019-03-13T20:28:57.523Z,2.33
2019-03-13T20:31:24.258Z,2.07
2019-03-13T20:33:50.797Z,2.20
2019-03-13T20:36:17.256Z,2.00
2019-03-13T20:38:47.152Z,1.90
2019-03-13T20:41:12.507Z,1.50
2019-03-13T20:43:38.992Z,1.70
2019-03-13T20:46:05.688Z,2.00
2019-03-13T20:48:32.366Z,2.20
2019-03-13T20:51:02.671Z,1.67
2019-03-13T20:53:29.269Z,2.10
2019-03-13T20:55:58.672Z,2.40
2019-03-13T20:58:24.349Z,2.07
2019-03-13T21:00:50.886Z,2.33
2019-03-13T21:03:17.319Z,2.20
2019-03-13T21:05:43.857Z,2.67
2019-03-13T21:08:10.397Z,2.40
2019-03-13T21:10:36.830Z,2.87
2019-03-13T21:13:03.306Z,1.80
2019-03-13T21:15:30.111Z,2.27
2019-03-13T21:17:56.644Z,2.30
2019-03-13T21:20:23.384Z,3.37
2019-03-13T21:22:49.819Z,2.73
2019-03-13T21:25:19.994Z,2.27
2019-03-13T21:27:48.023Z,2.33
2019-03-13T21:30:17.832Z,2.77
2019-03-13T21:32:44.459Z,2.40
2019-03-13T21:35:11.097Z,3.17
2019-03-13T21:37:37.531Z,2.63
2019-03-13T21:40:06.364Z,2.50
2019-03-13T21:42:34.085Z,2.87
2019-03-13T21:45:00.804Z,3.20
2019-03-13T21:47:27.363Z,3.70
2019-03-13T21:49:53.797Z,2.90
2019-03-13T21:52:20.230Z,2.43
2019-03-13T21:54:46.773Z,2.40
2019-03-13T21:57:13.407Z,2.57
2019-03-13T21:59:39.942Z,2.40
2019-03-13T22:02:06.376Z,2.10
2019-03-13T22:04:32.813Z,2.60
2019-03-13T22:06:59.349Z,2.40
2019-03-13T22:09:25.782Z,2.00
2019-03-13T22:11:52.213Z,2.40
2019-03-13T22:14:18.648Z,1.80
2019-03-13T22:16:45.188Z,2.23
2019-03-13T22:19:11.721Z,2.27
2019-03-13T22:21:38.461Z,1.90
2019-03-13T22:24:06.740Z,1.70
2019-03-13T22:26:33.278Z,1.93
2019-03-13T22:28:59.708Z,1.87
2019-03-13T22:31:26.142Z,1.90
2019-03-13T22:33:52.986Z,1.93
2019-03-13T22:36:19.526Z,1.83
2019-03-13T22:38:45.957Z,1.73
2019-03-13T22:41:12.390Z,2.13
2019-03-13T22:43:38.823Z,2.10
2019-03-13T22:46:05.358Z,2.10
2019-03-13T22:48:31.819Z,2.00
2019-03-13T22:51:01.972Z,2.60
2019-03-13T22:53:27.015Z,2.27
2019-03-13T22:55:53.619Z,2.87
2019-03-13T22:58:20.292Z,2.57
2019-03-13T23:00:54.919Z,2.20
2019-03-13T23:03:23.239Z,2.67
2019-03-13T23:05:49.934Z,2.57
2019-03-13T23:08:16.680Z,2.40
2019-03-13T23:10:43.422Z,3.17
2019-03-13T23:13:09.953Z,2.93
2019-03-13T23:15:36.490Z,2.57
2019-03-13T23:18:03.025Z,2.73
2019-03-13T23:20:29.462Z,2.30
2019-03-13T23:22:56.256Z,1.87
2019-03-13T23:25:22.940Z,2.13
2019-03-13T23:27:49.373Z,2.40
2019-03-13T23:30:17.707Z,1.90
2019-03-13T23:32:44.186Z,2.50
2019-03-13T23:35:10.926Z,2.33
2019-03-13T23:37:37.915Z,2.67
2019-03-13T23:40:06.090Z,3.00
2019-03-13T23:42:32.583Z,2.83
2019-03-13T23:44:59.120Z,2.87
2019-03-13T23:47:25.551Z,2.17
2019-03-13T23:49:51.984Z,1.90
2019-03-13T23:52:18.524Z,2.57
2019-03-13T23:54:45.058Z,2.67
2019-03-13T23:57:11.695Z,3.10
2019-03-13T23:59:38.238Z,2.57
